Time;durP1;ratioP1;P1;durP2;ratioP2;P2;SDS_P1;SDS_P2;PMS_P1;PMS_P2;Temp;Humidity;BMP_temperature;BMP_pressure;BME280_temperature;BME280_humidity;BME280_pressure;Samples;Min_cycle;Max_cycle;Signal;HPM_P1;HPM_P2
2022/12/18 00:01:32;;;;;;;26.75;9.65;;;;;;;-5.56;69.29;101801.72;10259636;28;20573;-68
2022/12/18 00:06:35;;;;;;;24.42;7.68;;;;;;;-5.66;69.04;101793.22;10261047;28;20774;-66
2022/12/18 00:11:36;;;;;;;20.30;7.03;;;;;;;-5.72;68.65;101798.59;10255214;28;20071;-66
2022/12/18 00:16:38;;;;;;;27.23;7.53;;;;;;;-5.79;69.04;101803.94;10242915;28;20125;-67
2022/12/18 00:21:41;;;;;;;31.63;7.70;;;;;;;-5.83;68.98;101804.06;10220490;28;20059;-67
2022/12/18 00:26:43;;;;;;;21.73;7.78;;;;;;;-5.85;69.30;101803.25;10215871;28;20118;-67
2022/12/18 00:31:45;;;;;;;28.65;8.77;;;;;;;-5.89;69.29;101794.59;10227883;28;20062;-67
2022/12/18 00:36:48;;;;;;;24.63;7.78;;;;;;;-5.90;68.81;101794.66;10220087;28;20517;-65
2022/12/18 00:47:09;;;;;;;22.02;6.88;;;;;;;-5.95;69.18;101797.38;10226371;28;20146;-65
2022/12/18 00:52:10;;;;;;;26.73;8.30;;;;;;;-5.89;69.08;101801.59;10226367;28;20051;-67
2022/12/18 00:57:11;;;;;;;39.60;8.07;;;;;;;-5.83;69.13;101804.06;10230747;28;20867;-66
2022/12/18 01:02:13;;;;;;;33.83;6.68;;;;;;;-5.89;68.84;101810.28;10223761;28;20079;-67
2022/12/18 01:07:14;;;;;;;33.95;8.73;;;;;;;-6.02;69.21;101817.59;10224060;28;20050;-66
2022/12/18 01:12:16;;;;;;;31.92;7.32;;;;;;;-5.95;69.43;101812.22;10226082;28;20079;-65
2022/12/18 01:17:17;;;;;;;34.95;7.88;;;;;;;-5.86;69.40;101814.63;10223929;28;20098;-65
2022/12/18 01:22:19;;;;;;;46.75;7.68;;;;;;;-5.93;69.15;101824.34;10225996;28;20043;-66
2022/12/18 01:27:20;;;;;;;38.92;7.25;;;;;;;-5.90;69.51;101821.69;10225045;28;20047;-66
2022/12/18 01:32:22;;;;;;;41.25;7.25;;;;;;;-5.91;69.44;101827.78;10220069;28;20193;-67
2022/12/18 01:37:23;;;;;;;39.90;7.45;;;;;;;-6.00;70.07;101831.53;10220274;28;20075;-65
2022/12/18 01:42:25;;;;;;;23.30;7.57;;;;;;;-6.05;69.56;101846.44;10223582;28;20207;-65
2022/12/18 01:47:44;;;;;;;28.60;6.97;;;;;;;-6.04;69.48;101844.69;10230693;28;20043;-64
2022/12/18 01:52:49;;;;;;;27.90;7.45;;;;;;;-6.08;69.28;101832.56;10280751;28;20078;-64
2022/12/18 01:57:56;;;;;;;21.92;7.07;;;;;;;-6.10;69.50;101821.28;10296322;28;20034;-64
2022/12/18 02:02:57;;;;;;;34.22;7.95;;;;;;;-6.07;69.45;101829.91;10307941;28;20059;-64
2022/12/18 02:08:04;;;;;;;23.70;6.55;;;;;;;-6.07;69.64;101827.31;10308957;28;20047;-64
2022/12/18 02:13:20;;;;;;;31.13;8.80;;;;;;;-5.94;69.31;101809.56;10307795;28;20079;-65
2022/12/18 02:18:32;;;;;;;74.43;7.78;;;;;;;-6.01;69.24;101811.47;10309270;28;20125;-64
2022/12/18 02:23:52;;;;;;;39.38;8.10;;;;;;;-6.04;69.62;101821.13;10303471;28;20067;-63
2022/12/18 02:28:59;;;;;;;51.58;8.18;;;;;;;-6.12;69.62;101807.34;10302479;28;20069;-64
2022/12/18 02:34:05;;;;;;;30.08;8.63;;;;;;;-6.07;69.65;101795.91;10302574;28;20047;-64
2022/12/18 02:39:10;;;;;;;25.00;7.93;;;;;;;-5.95;69.40;101813.09;10302211;28;20054;-65
2022/12/18 02:44:14;;;;;;;25.17;7.20;;;;;;;-5.96;69.43;101810.50;10293952;28;20050;-63
2022/12/18 02:49:27;;;;;;;30.45;7.72;;;;;;;-6.02;69.02;101815.00;10304362;28;20382;-65
2022/12/18 02:55:16;;;;;;;21.38;7.32;;;;;;;-6.07;69.32;101819.44;10302127;28;20053;-64
2022/12/18 03:00:24;;;;;;;41.88;10.05;;;;;;;-6.05;69.36;101820.28;10206915;28;20077;-64
2022/12/18 03:05:38;;;;;;;29.52;7.28;;;;;;;-6.08;69.51;101802.03;10302095;28;20047;-64
2022/12/18 03:10:45;;;;;;;24.90;6.95;;;;;;;-6.13;69.02;101830.06;10297404;28;20151;-66
2022/12/18 03:15:51;;;;;;;32.42;7.18;;;;;;;-6.16;69.38;101813.56;10297575;28;20061;-64
2022/12/18 03:20:55;;;;;;;26.20;7.82;;;;;;;-6.13;69.10;101809.13;10296292;28;20034;-63
2022/12/18 03:26:01;;;;;;;25.40;7.75;;;;;;;-6.13;69.30;101805.66;10297897;28;20054;-64
2022/12/18 03:31:11;;;;;;;30.15;8.05;;;;;;;-6.22;69.01;101806.69;10293079;28;20081;-65
2022/12/18 03:36:14;;;;;;;24.35;7.22;;;;;;;-6.25;68.65;101810.25;10292232;28;20061;-63
2022/12/18 03:41:23;;;;;;;27.08;8.27;;;;;;;-6.32;68.82;101806.03;10293922;28;20054;-64
2022/12/18 03:46:42;;;;;;;31.02;8.10;;;;;;;-6.43;69.47;101797.56;10292304;28;20050;-65
2022/12/18 03:51:53;;;;;;;25.20;6.85;;;;;;;-6.45;69.17;101805.44;10290283;28;20049;-65
2022/12/18 03:57:04;;;;;;;28.33;7.88;;;;;;;-6.42;68.57;101809.72;10294664;28;20034;-66
2022/12/18 04:02:07;;;;;;;31.50;8.82;;;;;;;-6.50;69.19;101809.03;10295978;28;20051;-65
2022/12/18 04:07:10;;;;;;;29.25;8.93;;;;;;;-6.61;68.99;101823.19;10293587;28;20086;-65
2022/12/18 04:12:11;;;;;;;23.67;8.52;;;;;;;-6.56;68.59;101809.16;10297245;28;20059;-64
2022/12/18 04:17:13;;;;;;;36.08;8.75;;;;;;;-6.59;68.78;101805.72;10295690;28;20107;-63
2022/12/18 04:22:15;;;;;;;22.77;6.97;;;;;;;-6.65;69.13;101794.53;10301296;28;20058;-64
2022/12/18 04:27:16;;;;;;;26.30;8.13;;;;;;;-6.73;68.96;101801.63;10279545;28;20051;-63
2022/12/18 04:32:18;;;;;;;27.13;6.78;;;;;;;-6.72;68.97;101805.97;10299957;28;20196;-64
2022/12/18 04:37:19;;;;;;;30.67;8.57;;;;;;;-6.69;68.50;101811.16;10301754;28;20047;-62
2022/12/18 04:42:21;;;;;;;30.65;7.47;;;;;;;-6.81;68.81;101807.03;10300761;28;20054;-63
2022/12/18 04:47:22;;;;;;;21.38;6.85;;;;;;;-6.77;68.51;101800.84;10300868;28;20054;-64
2022/12/18 04:52:23;;;;;;;20.65;7.47;;;;;;;-6.84;68.42;101804.44;10298127;28;20054;-63
2022/12/18 04:57:25;;;;;;;23.60;7.38;;;;;;;-6.83;68.36;101798.31;10304396;28;20063;-64
2022/12/18 05:02:27;;;;;;;21.42;6.30;;;;;;;-6.92;68.52;101798.50;10301243;28;20149;-64
2022/12/18 05:07:28;;;;;;;13.18;5.35;;;;;;;-6.94;68.45;101795.91;10308531;28;20240;-63
2022/12/18 05:12:31;;;;;;;20.80;5.82;;;;;;;-7.00;68.79;101798.66;10306658;28;20066;-63
2022/12/18 05:17:32;;;;;;;18.70;6.03;;;;;;;-7.01;68.62;101809.97;10313690;28;20043;-63
2022/12/18 05:22:34;;;;;;;20.88;5.97;;;;;;;-6.99;68.28;101819.53;10298588;28;20055;-63
2022/12/18 05:27:35;;;;;;;20.00;6.18;;;;;;;-7.05;68.44;101818.75;10299958;28;20078;-64
2022/12/18 05:32:37;;;;;;;18.40;5.90;;;;;;;-7.06;68.51;101815.28;10307003;28;20039;-63
2022/12/18 05:37:38;;;;;;;18.13;5.60;;;;;;;-7.09;68.65;101817.09;10313477;28;20039;-63
2022/12/18 05:42:43;;;;;;;16.33;5.57;;;;;;;-7.06;68.27;101807.47;10305677;28;20069;-64
2022/12/18 05:47:45;;;;;;;22.10;6.75;;;;;;;-7.11;68.42;101806.66;10304926;28;20039;-63
2022/12/18 05:52:46;;;;;;;25.92;10.65;;;;;;;-7.09;68.06;101811.88;10300893;28;20043;-64
2022/12/18 05:57:47;;;;;;;24.20;7.90;;;;;;;-7.10;68.00;101813.63;10293460;28;20051;-64
2022/12/18 06:02:49;;;;;;;22.05;6.70;;;;;;;-7.15;68.06;101804.16;10309466;28;20104;-63
2022/12/18 06:07:50;;;;;;;18.52;7.00;;;;;;;-7.19;68.10;101811.16;10306094;28;20051;-65
2022/12/18 06:12:52;;;;;;;23.63;5.72;;;;;;;-7.27;68.18;101819.13;10294727;28;20050;-63
2022/12/18 06:17:54;;;;;;;19.58;6.20;;;;;;;-7.43;68.33;101836.81;10260239;28;20051;-64
2022/12/18 06:22:55;;;;;;;33.28;8.90;;;;;;;-7.47;68.34;101829.91;10268279;28;20047;-64
2022/12/18 06:27:56;;;;;;;23.98;7.72;;;;;;;-7.49;68.69;101834.28;10264147;28;20039;-64
2022/12/18 06:32:58;;;;;;;23.77;6.35;;;;;;;-7.42;68.50;101835.94;10247155;28;20098;-64
2022/12/18 06:38:01;;;;;;;20.65;5.72;;;;;;;-7.45;68.46;101832.50;10262555;28;20055;-63
2022/12/18 06:43:02;;;;;;;18.95;6.90;;;;;;;-7.43;68.05;101841.16;10272189;28;20047;-64
2022/12/18 06:48:04;;;;;;;24.48;7.15;;;;;;;-7.30;67.94;101847.06;10291989;28;20070;-64
2022/12/18 06:53:05;;;;;;;20.38;5.78;;;;;;;-7.30;67.91;101857.53;10298234;28;20043;-65
2022/12/18 06:58:07;;;;;;;26.35;7.72;;;;;;;-7.26;68.08;101859.19;10303126;28;20101;-65
2022/12/18 07:03:11;;;;;;;21.88;6.53;;;;;;;-7.23;67.87;101861.75;10287020;28;20074;-63
2022/12/18 07:08:13;;;;;;;24.52;8.70;;;;;;;-7.19;67.63;101856.47;10297434;28;20055;-63
2022/12/18 07:13:17;;;;;;;21.70;6.80;;;;;;;-7.22;67.92;101876.53;10298286;28;20078;-63
2022/12/18 07:18:19;;;;;;;24.35;7.05;;;;;;;-7.18;67.76;101871.22;10296464;28;20092;-58
2022/12/18 07:23:20;;;;;;;20.13;6.90;;;;;;;-7.05;67.68;101876.25;10267657;28;20075;-58
2022/12/18 07:28:21;;;;;;;26.20;8.82;;;;;;;-6.96;67.61;101864.78;10262647;28;20144;-61
2022/12/18 07:33:25;;;;;;;25.88;6.38;;;;;;;-6.92;67.31;101853.41;10265097;28;20042;-58
2022/12/18 07:38:27;;;;;;;26.95;8.60;;;;;;;-6.94;67.38;101861.25;10261774;28;20051;-59
2022/12/18 07:43:28;;;;;;;22.13;6.95;;;;;;;-6.91;67.47;101869.06;10262088;28;20051;-60
2022/12/18 07:48:30;;;;;;;22.80;8.65;;;;;;;-7.00;67.72;101867.44;10264387;28;20588;-60
2022/12/18 07:53:33;;;;;;;29.40;8.50;;;;;;;-6.99;67.59;101866.56;10262201;28;20126;-59
2022/12/18 07:58:36;;;;;;;25.27;7.85;;;;;;;-6.95;67.47;101864.78;10261741;28;20494;-60
2022/12/18 08:03:39;;;;;;;22.30;6.78;;;;;;;-7.03;67.76;101862.28;10259734;28;20049;-60
2022/12/18 08:08:42;;;;;;;27.10;8.60;;;;;;;-6.97;67.59;101869.13;10263624;28;20046;-59
2022/12/18 08:13:43;;;;;;;25.75;7.82;;;;;;;-6.88;67.61;101865.53;10264391;28;20074;-59
2022/12/18 08:18:45;;;;;;;23.70;7.85;;;;;;;-6.78;67.24;101859.22;10258002;28;20106;-58
2022/12/18 08:23:47;;;;;;;35.92;10.50;;;;;;;-6.63;67.01;101858.09;10259414;28;20122;-57
2022/12/18 08:28:50;;;;;;;25.95;10.40;;;;;;;-6.58;67.14;101867.56;10261938;28;20071;-57
2022/12/18 08:33:52;;;;;;;27.70;10.18;;;;;;;-6.47;67.45;101856.06;10257875;28;20133;-57
2022/12/18 08:38:56;;;;;;;32.45;12.50;;;;;;;-6.31;66.76;101852.22;10256942;28;20379;-59
2022/12/18 08:49:18;;;;;;;33.10;9.73;;;;;;;-6.11;67.24;101850.97;10261350;28;20138;-60
2022/12/18 08:54:19;;;;;;;30.13;10.35;;;;;;;-5.96;67.32;101839.28;10244870;28;20051;-59
2022/12/18 08:59:21;;;;;;;26.05;8.93;;;;;;;-5.86;67.16;101831.19;10246521;28;20053;-59
2022/12/18 09:04:22;;;;;;;27.63;10.75;;;;;;;-5.74;67.48;101829.19;10264460;28;20046;-60
2022/12/18 09:09:24;;;;;;;30.05;11.05;;;;;;;-5.66;67.37;101838.59;10270320;28;20043;-59
2022/12/18 09:14:25;;;;;;;31.05;12.23;;;;;;;-5.56;67.17;101838.38;10264902;28;20134;-60
2022/12/18 09:19:27;;;;;;;39.92;13.73;;;;;;;-5.49;67.03;101840.81;10267225;28;20070;-58
2022/12/18 09:24:28;;;;;;;36.28;13.45;;;;;;;-5.41;66.84;101857.22;10261393;28;20446;-59
2022/12/18 09:29:29;;;;;;;34.50;10.85;;;;;;;-5.43;67.20;101851.16;10254382;28;20114;-59
2022/12/18 09:34:31;;;;;;;33.42;12.00;;;;;;;-5.28;67.42;101857.78;10258624;28;20062;-60
2022/12/18 09:39:35;;;;;;;32.80;11.32;;;;;;;-5.22;67.41;101856.75;10262335;28;20047;-57
2022/12/18 09:44:46;;;;;;;39.72;13.27;;;;;;;-5.06;67.19;101858.09;10259699;28;20141;-59
2022/12/18 09:49:54;;;;;;;38.90;14.15;;;;;;;-4.81;67.07;101839.97;10263290;28;20074;-63
2022/12/18 09:55:09;;;;;;;36.67;13.52;;;;;;;-4.56;66.83;101849.81;10267625;28;20071;-60
2022/12/18 10:00:18;;;;;;;42.42;15.82;;;;;;;-4.35;66.94;101845.72;10265284;28;20145;-60
2022/12/18 10:05:39;;;;;;;38.80;13.60;;;;;;;-4.13;67.54;101832.84;10262958;28;20557;-58
2022/12/18 10:11:01;;;;;;;42.60;16.23;;;;;;;-3.90;67.10;101852.31;10264156;28;20627;-59
2022/12/18 10:16:15;;;;;;;35.05;16.83;;;;;;;-3.73;67.19;101847.44;10262818;28;20389;-60
2022/12/18 10:21:23;;;;;;;41.63;18.10;;;;;;;-3.62;67.68;101839.19;10264460;28;20105;-61
2022/12/18 10:26:25;;;;;;;46.65;19.50;;;;;;;-3.35;67.42;101826.09;10269349;28;20081;-59
2022/12/18 10:31:26;;;;;;;44.17;18.15;;;;;;;-3.28;67.80;101817.06;10263999;28;20122;-59
2022/12/18 10:36:28;;;;;;;50.72;19.65;;;;;;;-2.99;67.99;101810.84;10262015;28;20043;-58
2022/12/18 10:41:32;;;;;;;43.13;18.60;;;;;;;-2.78;67.41;101806.63;10261160;28;20149;-65
2022/12/18 10:46:33;;;;;;;42.75;18.58;;;;;;;-2.61;67.38;101813.88;10264923;28;20698;-65
2022/12/18 10:51:37;;;;;;;47.30;19.23;;;;;;;-2.41;67.77;101821.06;10264411;28;20058;-64
2022/12/18 10:56:39;;;;;;;46.38;19.77;;;;;;;-2.25;67.77;101813.47;10265360;28;20092;-64
2022/12/18 11:01:47;;;;;;;44.28;19.40;;;;;;;-2.10;68.03;101810.25;10265111;28;20047;-65
2022/12/18 11:06:57;;;;;;;51.25;20.67;;;;;;;-1.95;68.02;101811.44;10260301;28;20949;-66
2022/12/18 11:12:02;;;;;;;46.75;17.70;;;;;;;-1.90;68.08;101816.53;10248821;28;20134;-67
2022/12/18 11:17:04;;;;;;;47.92;17.83;;;;;;;-1.80;68.13;101802.97;10262701;28;20130;-66
2022/12/18 11:22:31;;;;;;;49.92;18.25;;;;;;;-1.60;67.90;101788.09;10215588;28;20102;-66
2022/12/18 11:27:33;;;;;;;47.55;16.13;;;;;;;-1.69;68.09;101799.03;10240231;28;20062;-66
2022/12/18 11:32:40;;;;;;;52.78;17.73;;;;;;;-1.61;67.94;101795.16;10258478;28;20070;-67
2022/12/18 11:37:47;;;;;;;50.55;19.85;;;;;;;-1.62;67.87;101785.53;10258950;28;20513;-66
2022/12/18 11:42:57;;;;;;;50.80;18.42;;;;;;;-1.57;67.71;101774.81;10258829;28;20133;-67
2022/12/18 11:48:18;;;;;;;51.88;19.25;;;;;;;-1.66;68.05;101776.03;10258600;28;20150;-65
2022/12/18 11:53:20;;;;;;;44.13;15.95;;;;;;;-1.69;67.74;101776.16;10260799;28;20078;-66
2022/12/18 11:58:34;;;;;;;49.67;18.10;;;;;;;-1.58;67.65;101765.16;10246137;28;20121;-67
2022/12/18 12:04:13;;;;;;;39.55;16.20;;;;;;;-1.53;67.39;101768.47;10256252;28;20047;-68
2022/12/18 12:09:46;;;;;;;47.45;18.80;;;;;;;-1.43;67.39;101767.19;10257404;28;20047;-70
2022/12/18 12:15:16;;;;;;;46.35;18.67;;;;;;;-1.38;67.37;101772.28;10255580;28;20063;-66
2022/12/18 12:20:43;;;;;;;46.33;17.63;;;;;;;-1.15;66.93;101760.72;10249190;28;20663;-69
2022/12/18 12:25:47;;;;;;;47.75;16.52;;;;;;;-1.08;66.53;101756.06;10259851;28;20047;-68
2022/12/18 12:31:15;;;;;;;52.60;17.75;;;;;;;-1.14;66.91;101774.81;10251755;28;20174;-67
2022/12/18 12:36:30;;;;;;;43.35;15.73;;;;;;;-1.08;66.98;101770.13;10257343;28;20062;-65
2022/12/18 12:47:00;;;;;;;40.97;16.88;;;;;;;-0.95;66.65;101738.75;10246692;28;20051;-64
2022/12/18 12:52:11;;;;;;;54.63;18.17;;;;;;;-0.78;66.45;101738.03;10228641;28;20180;-65
2022/12/18 12:57:20;;;;;;;51.53;18.45;;;;;;;-0.75;65.94;101729.97;10226155;28;20055;-64
2022/12/18 13:02:23;;;;;;;46.58;17.60;;;;;;;-0.85;66.28;101726.88;10226714;28;20067;-62
2022/12/18 13:07:32;;;;;;;46.00;16.17;;;;;;;-0.87;66.44;101726.09;10238494;28;20057;-63
2022/12/18 13:18:27;;;;;;;47.90;17.38;;;;;;;-0.69;65.94;101729.69;10268732;28;19929;-63
2022/12/18 13:23:30;;;;;;;53.90;18.02;;;;;;;-0.63;66.11;101718.84;10232468;28;20031;-62
2022/12/18 13:28:32;;;;;;;45.15;15.15;;;;;;;-0.57;66.05;101727.41;10266041;28;20776;-63
2022/12/18 13:33:34;;;;;;;39.90;14.63;;;;;;;-0.58;66.06;101728.34;10264359;28;20418;-63
2022/12/18 13:38:39;;;;;;;49.38;18.70;;;;;;;-0.53;65.89;101714.00;10264979;28;20138;-62
2022/12/18 13:43:49;;;;;;;53.20;17.75;;;;;;;-0.39;65.81;101718.66;10259498;28;20130;-62
2022/12/18 13:48:55;;;;;;;46.92;18.50;;;;;;;-0.38;66.08;101706.28;10245709;28;20139;-61
2022/12/18 13:54:05;;;;;;;43.15;16.73;;;;;;;-0.34;65.80;101692.88;10263662;28;20109;-62
2022/12/18 13:59:40;;;;;;;51.17;19.63;;;;;;;-0.33;65.69;101689.31;10261178;28;20529;-62
2022/12/18 14:04:45;;;;;;;53.28;19.40;;;;;;;-0.30;65.24;101688.28;10222281;28;20090;-63
2022/12/18 14:09:52;;;;;;;46.40;16.75;;;;;;;-0.22;65.11;101680.84;10262063;28;20054;-62
2022/12/18 14:15:03;;;;;;;47.75;16.70;;;;;;;-0.27;65.91;101693.44;10264372;28;20061;-62
2022/12/18 14:20:14;;;;;;;43.97;18.38;;;;;;;-0.27;65.30;101696.94;10257868;28;20130;-62
2022/12/18 14:25:22;;;;;;;45.75;17.20;;;;;;;-0.24;65.21;101688.00;10260256;28;20157;-62
2022/12/18 14:30:23;;;;;;;39.00;15.02;;;;;;;-0.33;65.62;101689.31;10262467;28;20137;-62
2022/12/18 14:35:24;;;;;;;44.88;16.70;;;;;;;-0.29;65.47;101685.59;10260588;28;20146;-62
2022/12/18 14:40:26;;;;;;;45.20;16.83;;;;;;;-0.25;65.51;101691.59;10260364;28;20047;-62
2022/12/18 14:45:44;;;;;;;46.25;17.73;;;;;;;-0.30;65.43;101688.28;10256896;28;20505;-61
2022/12/18 14:51:14;;;;;;;49.65;17.10;;;;;;;-0.36;65.09;101693.88;10264764;28;20149;-63
2022/12/18 14:56:27;;;;;;;48.92;16.77;;;;;;;-0.36;65.38;101693.88;10261622;28;20509;-63
2022/12/18 15:01:36;;;;;;;42.50;17.02;;;;;;;-0.35;65.10;101680.59;10263136;28;20049;-62
2022/12/18 15:06:39;;;;;;;49.58;17.75;;;;;;;-0.42;65.03;101677.38;10264252;28;20114;-61
2022/12/18 15:11:41;;;;;;;48.85;16.90;;;;;;;-0.45;65.31;101681.97;10265901;28;20047;-63
2022/12/18 15:16:42;;;;;;;53.92;19.58;;;;;;;-0.53;64.94;101671.75;10261343;28;20471;-62
2022/12/18 15:21:46;;;;;;;50.83;19.75;;;;;;;-0.60;65.48;101678.25;10258235;28;20039;-62
2022/12/18 15:26:48;;;;;;;57.38;21.05;;;;;;;-0.66;64.92;101678.53;10264881;28;20126;-61
2022/12/18 15:32:05;;;;;;;59.17;21.00;;;;;;;-0.74;65.21;101673.59;10263475;28;20727;-62
2022/12/18 15:37:07;;;;;;;53.17;21.63;;;;;;;-0.78;65.01;101657.97;10262808;28;20058;-61
2022/12/18 15:47:30;;;;;;;50.63;18.45;;;;;;;-1.16;65.77;101652.66;10265110;28;20145;-66
2022/12/18 15:52:43;;;;;;;51.83;21.13;;;;;;;-1.31;65.99;101651.53;10261663;28;20043;-66
2022/12/18 15:57:45;;;;;;;55.55;20.10;;;;;;;-1.40;66.20;101642.25;10259453;28;20058;-66
2022/12/18 16:02:46;;;;;;;55.97;19.98;;;;;;;-1.45;66.30;101642.44;10261585;28;20045;-67
2022/12/18 16:07:48;;;;;;;48.13;16.17;;;;;;;-1.69;66.64;101651.41;10263345;28;20051;-67
2022/12/18 16:12:50;;;;;;;45.95;18.60;;;;;;;-1.75;66.74;101642.00;10268494;28;20047;-67
2022/12/18 16:17:52;;;;;;;53.53;20.95;;;;;;;-1.77;66.86;101648.25;10272353;28;20086;-68
2022/12/18 16:22:53;;;;;;;53.42;19.15;;;;;;;-1.76;66.88;101634.97;10270211;28;20136;-68
2022/12/18 16:27:56;;;;;;;52.65;19.63;;;;;;;-1.76;67.00;101640.25;10266625;28;20417;-68
2022/12/18 16:32:58;;;;;;;52.40;18.88;;;;;;;-1.66;66.94;101624.91;10248482;28;20138;-67
2022/12/18 16:37:59;;;;;;;68.50;21.83;;;;;;;-1.48;66.26;101618.88;10267299;28;20066;-68
2022/12/18 16:43:00;;;;;;;58.20;21.50;;;;;;;-1.44;66.51;101603.78;10267677;28;20747;-67
2022/12/18 16:48:02;;;;;;;55.65;20.85;;;;;;;-1.56;66.99;101610.44;10251238;28;20071;-67
2022/12/18 16:53:04;;;;;;;65.43;21.67;;;;;;;-1.41;66.36;101603.63;10249799;28;20144;-68
2022/12/18 16:58:05;;;;;;;66.47;23.50;;;;;;;-1.30;66.33;101600.50;10264859;28;20161;-67
2022/12/18 17:03:07;;;;;;;68.35;22.80;;;;;;;-1.30;66.37;101598.72;10266938;28;20061;-67
2022/12/18 17:08:08;;;;;;;59.22;22.42;;;;;;;-1.32;66.52;101592.66;10265387;28;20053;-67
2022/12/18 17:13:10;;;;;;;63.22;22.00;;;;;;;-1.26;66.68;101592.38;10269218;28;20090;-65
2022/12/18 17:18:11;;;;;;;60.13;23.58;;;;;;;-1.31;66.47;101601.44;10267244;28;20138;-66
2022/12/18 17:23:13;;;;;;;62.33;22.00;;;;;;;-1.29;66.68;101602.22;10265922;28;20498;-66
2022/12/18 17:28:14;;;;;;;61.80;22.92;;;;;;;-1.25;66.67;101596.72;10271645;28;20454;-65
2022/12/18 17:33:15;;;;;;;81.72;32.25;;;;;;;-1.15;66.37;101602.44;10267194;28;20051;-67
2022/12/18 17:38:17;;;;;;;75.15;29.23;;;;;;;-1.08;66.23;101593.34;10253317;28;20085;-68
2022/12/18 17:43:18;;;;;;;76.47;28.85;;;;;;;-1.02;66.57;101592.19;10270627;28;20053;-66
2022/12/18 17:48:20;;;;;;;76.10;26.33;;;;;;;-1.03;66.41;101587.84;10262830;28;20172;-67
2022/12/18 17:53:22;;;;;;;59.72;24.92;;;;;;;-1.02;66.67;101593.03;10259293;28;21025;-68
2022/12/18 17:58:23;;;;;;;66.28;26.20;;;;;;;-0.96;66.45;101584.00;10263953;28;20148;-67
2022/12/18 18:03:25;;;;;;;54.22;23.90;;;;;;;-0.95;66.45;101592.75;10262030;28;20142;-66
2022/12/18 18:08:27;;;;;;;59.35;23.33;;;;;;;-0.94;66.67;101587.41;10263169;28;20047;-65
2022/12/18 18:18:50;;;;;;;59.92;21.55;;;;;;;-0.94;66.75;101579.50;10264133;28;20498;-65
2022/12/18 18:23:51;;;;;;;55.60;22.92;;;;;;;-0.95;66.71;101579.56;10268459;28;20125;-66
2022/12/18 18:28:53;;;;;;;49.58;20.45;;;;;;;-0.87;66.77;101577.41;10264121;28;20055;-66
2022/12/18 18:33:56;;;;;;;53.45;21.23;;;;;;;-0.86;66.56;101582.63;10263664;28;20206;-65
2022/12/18 18:39:01;;;;;;;60.88;22.83;;;;;;;-0.79;66.67;101567.34;10257539;28;20119;-66
2022/12/18 18:44:03;;;;;;;60.47;22.23;;;;;;;-0.76;66.46;101569.00;10265347;28;20093;-65
2022/12/18 18:49:05;;;;;;;61.63;25.80;;;;;;;-0.72;66.39;101579.34;10256828;28;20061;-65
2022/12/18 18:54:08;;;;;;;61.58;23.83;;;;;;;-0.70;66.61;101558.16;10258805;28;20085;-73
2022/12/18 18:59:09;;;;;;;58.42;21.38;;;;;;;-0.66;67.24;101555.28;10257204;28;20136;-66
2022/12/18 19:04:11;;;;;;;64.38;25.00;;;;;;;-0.64;66.69;101547.28;10257969;28;20055;-66
2022/12/18 19:09:12;;;;;;;65.63;24.65;;;;;;;-0.64;67.13;101531.44;10259152;28;20059;-67
2022/12/18 19:14:14;;;;;;;52.45;22.23;;;;;;;-0.63;67.13;101522.63;10259875;28;20043;-65
2022/12/18 19:19:19;;;;;;;52.60;20.55;;;;;;;-0.56;67.18;101515.25;10260771;28;20071;-67
2022/12/18 19:24:21;;;;;;;53.05;22.17;;;;;;;-0.53;66.92;101523.00;10260236;28;20055;-66
2022/12/18 19:29:23;;;;;;;52.42;20.63;;;;;;;-0.48;67.07;101519.19;10259442;28;20070;-66
2022/12/18 19:34:24;;;;;;;53.45;20.02;;;;;;;-0.40;66.77;101513.53;10258581;28;20779;-65
2022/12/18 19:39:26;;;;;;;55.13;19.95;;;;;;;-0.40;67.10;101532.03;10263178;28;20106;-67
2022/12/18 19:44:27;;;;;;;54.33;19.45;;;;;;;-0.37;67.32;101526.59;10261741;28;20045;-67
2022/12/18 19:49:30;;;;;;;51.08;20.17;;;;;;;-0.24;67.37;101513.63;10258284;28;20130;-66
2022/12/18 19:54:32;;;;;;;54.45;21.15;;;;;;;-0.19;67.19;101493.13;10266196;28;20046;-69
2022/12/18 19:59:35;;;;;;;56.72;22.55;;;;;;;-0.16;67.53;101503.50;10257245;28;20450;-69
2022/12/18 20:04:39;;;;;;;52.25;18.77;;;;;;;-0.24;67.50;101498.66;10244775;28;20059;-67
2022/12/18 20:09:40;;;;;;;50.35;20.23;;;;;;;-0.11;67.45;101498.88;10216932;28;20047;-68
2022/12/18 20:14:42;;;;;;;53.58;19.38;;;;;;;-0.09;66.89;101498.78;10218084;28;20055;-68
2022/12/18 20:19:44;;;;;;;51.80;20.73;;;;;;;-0.09;67.39;101501.44;10211303;28;20043;-69
2022/12/18 20:24:45;;;;;;;47.72;20.10;;;;;;;-0.07;67.61;101504.84;10220977;28;20166;-68
2022/12/18 20:29:49;;;;;;;46.10;16.63;;;;;;;-0.09;67.25;101496.16;10221846;28;20043;-69
2022/12/18 20:34:51;;;;;;;49.30;18.83;;;;;;;0.00;67.28;101495.69;10220739;28;20128;-68
2022/12/18 20:39:53;;;;;;;48.58;19.38;;;;;;;0.06;67.33;101498.00;10223972;28;20150;-69
2022/12/18 20:44:55;;;;;;;45.40;17.95;;;;;;;0.01;66.95;101505.31;10216728;28;20039;-68
2022/12/18 20:49:57;;;;;;;43.88;17.85;;;;;;;0.09;66.91;101492.53;10222063;28;20047;-68
2022/12/18 20:54:58;;;;;;;37.83;16.15;;;;;;;0.13;66.81;101485.31;10224475;28;20126;-69
2022/12/18 21:00:01;;;;;;;51.28;19.45;;;;;;;0.15;66.66;101483.44;10225927;28;20052;-70
2022/12/18 21:05:03;;;;;;;49.75;18.48;;;;;;;0.16;67.11;101477.22;10231924;28;20316;-70
2022/12/18 21:10:05;;;;;;;51.72;18.17;;;;;;;0.14;66.67;101484.38;10227922;28;20079;-69
2022/12/18 21:15:08;;;;;;;46.58;17.65;;;;;;;0.18;67.46;101493.88;10220457;28;20173;-67
2022/12/18 21:20:10;;;;;;;36.80;15.50;;;;;;;0.28;66.56;101488.94;10228886;28;20585;-67
2022/12/18 21:25:17;;;;;;;;;;;;;;;0.29;66.75;101488.84;10228370;28;20086;-67
2022/12/18 21:30:19;;;;;;;42.85;16.70;;;;;;;0.38;66.64;101496.28;10222845;28;20017;-66
2022/12/18 21:35:20;;;;;;;39.95;17.10;;;;;;;0.42;66.85;101489.06;10227301;28;20089;-67
2022/12/18 21:40:23;;;;;;;38.58;16.20;;;;;;;0.42;66.46;101494.34;10235423;28;20058;-68
2022/12/18 21:45:25;;;;;;;50.83;19.67;;;;;;;0.52;66.75;101502.66;10261342;28;20138;-67
2022/12/18 21:50:26;;;;;;;52.88;20.35;;;;;;;0.62;66.73;101501.19;10261613;28;20125;-67
2022/12/18 21:55:27;;;;;;;45.33;17.70;;;;;;;0.66;66.35;101493.97;10265931;28;20134;-66
2022/12/18 22:00:29;;;;;;;48.80;19.75;;;;;;;0.67;66.05;101500.94;10264283;28;20078;-68
2022/12/18 22:05:30;;;;;;;49.35;19.67;;;;;;;0.69;66.02;101480.53;10259730;28;20121;-69
2022/12/18 22:10:32;;;;;;;43.08;18.35;;;;;;;0.62;66.93;101476.53;10265385;28;20094;-68
2022/12/18 22:15:33;;;;;;;41.90;17.92;;;;;;;0.62;67.24;101480.03;10265906;28;20386;-67
2022/12/18 22:20:35;;;;;;;43.50;17.70;;;;;;;0.72;66.84;101470.66;10264408;28;20169;-70
2022/12/18 22:25:36;;;;;;;48.75;20.00;;;;;;;0.72;66.80;101468.00;10265793;28;20130;-68
2022/12/18 22:30:40;;;;;;;48.00;19.70;;;;;;;0.77;66.25;101484.50;10264348;28;20117;-68
2022/12/18 22:35:41;;;;;;;46.60;17.75;;;;;;;0.74;66.60;101482.00;10262417;28;20667;-67
2022/12/18 22:40:43;;;;;;;43.10;17.17;;;;;;;0.81;66.25;101477.25;10264349;28;20051;-67
2022/12/18 22:45:46;;;;;;;45.03;17.73;;;;;;;0.82;66.47;101468.34;10262499;28;20134;-69
2022/12/18 22:50:48;;;;;;;50.28;19.15;;;;;;;0.84;66.10;101458.53;10260575;28;20047;-68
2022/12/18 22:55:51;;;;;;;49.92;18.65;;;;;;;0.85;66.43;101452.31;10259278;28;20065;-68
2022/12/18 23:00:53;;;;;;;46.08;17.83;;;;;;;0.84;65.91;101458.53;10261491;28;20047;-69
2022/12/18 23:06:02;;;;;;;43.67;16.60;;;;;;;0.72;66.07;101452.13;10259428;28;20146;-69
2022/12/18 23:11:04;;;;;;;45.58;18.63;;;;;;;0.83;66.72;101442.72;10264854;28;20082;-67
2022/12/18 23:16:07;;;;;;;45.60;18.90;;;;;;;0.83;66.15;101442.72;10264172;28;20402;-67
2022/12/18 23:21:12;;;;;;;47.67;17.70;;;;;;;0.86;65.79;101451.34;10261772;28;20134;-68
2022/12/18 23:26:20;;;;;;;49.30;19.25;;;;;;;0.93;65.61;101444.78;10252090;28;20085;-67
2022/12/18 23:31:23;;;;;;;;;;;;;;;0.93;66.39;101425.41;10271419;28;20565;-67